Time;durP1;ratioP1;P1;durP2;ratioP2;P2;SDS_P1;SDS_P2;PMS_P1;PMS_P2;Temp;Humidity;BMP_temperature;BMP_pressure;BME280_temperature;BME280_humidity;BME280_pressure;Samples;Min_cycle;Max_cycle;Signal;HPM_P1;HPM_P2
2021/07/11 00:00:31;;;;;;;3.22;2.80;;;;;;;;;;5045333;28;20271;-75
2021/07/11 00:02:56;;;;;;;5.13;2.90;;;;;;;;;;5045817;28;20017;-75
2021/07/11 00:05:25;;;;;;;3.60;2.95;;;;;;;;;;5047903;28;20021;-75
2021/07/11 00:07:51;;;;;;;3.83;3.47;;;;;;;;;;5043074;28;20514;-75
2021/07/11 00:10:17;;;;;;;4.82;3.00;;;;;;;;;;5053306;28;20246;-75
2021/07/11 00:12:44;;;;;;;4.55;2.72;;;;;;;;;;5038857;28;20087;-75
2021/07/11 00:15:12;;;;;;;5.18;3.05;;;;;;;;;;5041147;28;20485;-76
2021/07/11 00:17:41;;;;;;;3.27;2.90;;;;;;;;;;5041466;28;20106;-77
2021/07/11 00:20:08;;;;;;;3.47;2.90;;;;;;;;;;5044810;28;20639;-77
2021/07/11 00:22:34;;;;;;;4.80;2.88;;;;;;;;;;5046572;28;20382;-77
2021/07/11 00:24:59;;;;;;;3.85;2.90;;;;;;;;;;5041656;28;20025;-77
2021/07/11 00:27:24;;;;;;;3.22;2.90;;;;;;;;;;5039016;28;20041;-77
2021/07/11 00:29:50;;;;;;;4.18;3.15;;;;;;;;;;5047119;28;20029;-77
2021/07/11 00:32:15;;;;;;;3.97;2.97;;;;;;;;;;5039415;28;20357;-77
2021/07/11 00:34:41;;;;;;;4.65;3.10;;;;;;;;;;5039302;28;20075;-77
2021/07/11 00:37:06;;;;;;;3.00;2.70;;;;;;;;;;5039536;28;20029;-78
2021/07/11 00:39:32;;;;;;;2.95;2.67;;;;;;;;;;5039715;28;20029;-78
2021/07/11 00:41:57;;;;;;;3.13;2.72;;;;;;;;;;5043482;28;20127;-77
2021/07/11 00:44:23;;;;;;;3.85;2.58;;;;;;;;;;5044894;28;20027;-77
2021/07/11 00:46:48;;;;;;;3.67;3.00;;;;;;;;;;5032429;28;20448;-77
2021/07/11 00:49:14;;;;;;;2.80;2.55;;;;;;;;;;5035440;28;20306;-77
2021/07/11 00:51:41;;;;;;;3.63;3.03;;;;;;;;;;5037273;28;20029;-77
2021/07/11 00:54:07;;;;;;;2.97;2.47;;;;;;;;;;5039217;28;20037;-77
2021/07/11 00:56:32;;;;;;;2.60;2.17;;;;;;;;;;5046310;28;20103;-77
2021/07/11 00:58:58;;;;;;;3.67;2.70;;;;;;;;;;5048559;28;20076;-77
2021/07/11 01:01:26;;;;;;;2.83;2.35;;;;;;;;;;5044924;28;20028;-77
2021/07/11 01:03:55;;;;;;;2.60;2.40;;;;;;;;;;5058860;28;20064;-77
2021/07/11 01:06:21;;;;;;;3.13;2.20;;;;;;;;;;5048477;28;20170;-77
2021/07/11 01:08:55;;;;;;;2.38;2.17;;;;;;;;;;5048937;28;20096;-77
2021/07/11 01:11:24;;;;;;;3.65;2.72;;;;;;;;;;5040518;28;20025;-77
2021/07/11 01:13:52;;;;;;;3.40;2.55;;;;;;;;;;5058915;28;20047;-76
2021/07/11 01:16:26;;;;;;;3.10;2.15;;;;;;;;;;5049640;28;20033;-76
2021/07/11 01:18:54;;;;;;;2.85;2.55;;;;;;;;;;5047239;28;20052;-77
2021/07/11 01:21:21;;;;;;;3.58;2.85;;;;;;;;;;5041717;28;20017;-77
2021/07/11 01:23:57;;;;;;;3.38;2.55;;;;;;;;;;5048630;28;20299;-76
2021/07/11 01:26:24;;;;;;;2.67;2.33;;;;;;;;;;5043844;28;20048;-76
2021/07/11 01:28:52;;;;;;;4.38;2.60;;;;;;;;;;5045249;28;20026;-76
2021/07/11 01:31:19;;;;;;;3.88;2.47;;;;;;;;;;5040887;28;20089;-76
2021/07/11 01:33:46;;;;;;;5.03;2.70;;;;;;;;;;5050613;28;20046;-76
2021/07/11 01:36:12;;;;;;;3.35;2.53;;;;;;;;;;5047661;28;20029;-77
2021/07/11 01:38:40;;;;;;;3.95;2.30;;;;;;;;;;5046310;28;20171;-77
2021/07/11 01:41:08;;;;;;;2.70;2.30;;;;;;;;;;5044791;28;20053;-76
2021/07/11 01:43:35;;;;;;;3.83;2.40;;;;;;;;;;5046200;28;20446;-76
2021/07/11 01:46:03;;;;;;;3.28;2.45;;;;;;;;;;5043236;28;20029;-76
2021/07/11 01:48:30;;;;;;;3.15;2.35;;;;;;;;;;5045737;28;20020;-76
2021/07/11 01:50:56;;;;;;;2.95;2.65;;;;;;;;;;5044186;28;20025;-76
2021/07/11 01:53:24;;;;;;;3.05;2.45;;;;;;;;;;5044063;28;20032;-76
2021/07/11 01:55:52;;;;;;;2.75;2.38;;;;;;;;;;5042651;28;20032;-77
2021/07/11 01:58:18;;;;;;;4.28;2.42;;;;;;;;;;5041460;28;20496;-76
2021/07/11 02:00:44;;;;;;;8.07;2.60;;;;;;;;;;5046395;28;20107;-76
2021/07/11 02:03:20;;;;;;;2.70;2.50;;;;;;;;;;5039404;28;20029;-76
2021/07/11 02:05:48;;;;;;;2.85;2.33;;;;;;;;;;5045575;28;20025;-76
2021/07/11 02:08:15;;;;;;;3.70;2.60;;;;;;;;;;5045016;28;20478;-76
2021/07/11 02:10:44;;;;;;;2.53;2.33;;;;;;;;;;5045213;28;20791;-76
2021/07/11 02:13:24;;;;;;;4.55;2.63;;;;;;;;;;5055423;28;20025;-76
2021/07/11 02:15:52;;;;;;;5.05;2.80;;;;;;;;;;5046996;28;20071;-76
2021/07/11 02:18:23;;;;;;;3.22;2.50;;;;;;;;;;5047139;28;20024;-76
2021/07/11 02:20:49;;;;;;;3.00;2.63;;;;;;;;;;5043534;28;20124;-76
2021/07/11 02:23:17;;;;;;;2.97;2.67;;;;;;;;;;5046504;28;20036;-76
2021/07/11 02:25:45;;;;;;;5.15;2.75;;;;;;;;;;5046777;28;21868;-76
2021/07/11 02:28:11;;;;;;;5.35;2.60;;;;;;;;;;5047386;28;20033;-76
2021/07/11 02:30:41;;;;;;;3.05;2.75;;;;;;;;;;5041799;28;20516;-76
2021/07/11 02:33:12;;;;;;;2.88;2.42;;;;;;;;;;5043305;28;20048;-76
2021/07/11 02:35:42;;;;;;;2.90;2.60;;;;;;;;;;5040477;28;20032;-77
2021/07/11 02:38:08;;;;;;;2.70;2.50;;;;;;;;;;5045073;28;20021;-76
2021/07/11 02:40:35;;;;;;;5.03;2.70;;;;;;;;;;5057865;28;20026;-76
2021/07/11 02:43:06;;;;;;;3.30;2.60;;;;;;;;;;5047731;28;20104;-76
2021/07/11 02:45:33;;;;;;;3.08;2.30;;;;;;;;;;5058272;28;20350;-77
2021/07/11 02:48:00;;;;;;;2.72;2.53;;;;;;;;;;5041982;28;20112;-76
2021/07/11 02:50:26;;;;;;;2.75;2.40;;;;;;;;;;5046283;28;20021;-77
2021/07/11 02:52:53;;;;;;;2.80;2.50;;;;;;;;;;5041499;28;20022;-77
2021/07/11 02:55:24;;;;;;;3.83;2.08;;;;;;;;;;5044019;28;20117;-76
2021/07/11 02:57:53;;;;;;;3.83;2.40;;;;;;;;;;5041908;28;20025;-79
2021/07/11 03:00:18;;;;;;;3.47;2.15;;;;;;;;;;5047119;28;20183;-79
2021/07/11 03:02:44;;;;;;;5.10;2.58;;;;;;;;;;5045351;28;20491;-78
2021/07/11 03:05:14;;;;;;;3.58;2.63;;;;;;;;;;5042464;28;20485;-78
2021/07/11 03:07:39;;;;;;;2.47;2.28;;;;;;;;;;5046895;28;20025;-79
2021/07/11 03:10:07;;;;;;;2.70;2.42;;;;;;;;;;5046831;28;20457;-78
2021/07/11 03:12:35;;;;;;;2.50;2.30;;;;;;;;;;5040698;28;20053;-78
2021/07/11 03:15:02;;;;;;;3.53;2.60;;;;;;;;;;5045203;28;20020;-79
2021/07/11 03:17:27;;;;;;;4.05;2.50;;;;;;;;;;5043606;28;20083;-78
2021/07/11 03:19:54;;;;;;;2.55;2.35;;;;;;;;;;5042552;28;20488;-78
2021/07/11 03:22:22;;;;;;;2.45;2.22;;;;;;;;;;5045190;28;20063;-79
2021/07/11 03:24:49;;;;;;;2.83;2.45;;;;;;;;;;5047915;28;20081;-79
2021/07/11 03:27:15;;;;;;;2.85;2.42;;;;;;;;;;5043227;28;20096;-79
2021/07/11 03:30:01;;;;;;;4.53;2.30;;;;;;;;;;5042507;28;20569;-79
2021/07/11 03:32:29;;;;;;;3.88;2.38;;;;;;;;;;5048336;28;20102;-79
2021/07/11 03:34:57;;;;;;;2.58;2.35;;;;;;;;;;5050236;28;20476;-79
2021/07/11 03:37:24;;;;;;;4.85;2.28;;;;;;;;;;5044696;28;20030;-79
2021/07/11 03:39:50;;;;;;;2.83;2.58;;;;;;;;;;5045696;28;20037;-79
2021/07/11 03:42:18;;;;;;;2.60;2.30;;;;;;;;;;5041827;28;20473;-79
2021/07/11 03:44:48;;;;;;;3.10;2.80;;;;;;;;;;5044718;28;20153;-79
2021/07/11 03:47:18;;;;;;;2.85;2.53;;;;;;;;;;5046128;28;20039;-79
2021/07/11 03:49:46;;;;;;;3.60;2.95;;;;;;;;;;5047248;28;20112;-79
2021/07/11 03:52:14;;;;;;;5.93;3.00;;;;;;;;;;5045462;28;20029;-80
2021/07/11 03:54:42;;;;;;;2.97;2.50;;;;;;;;;;5036691;28;20021;-79
2021/07/11 03:57:09;;;;;;;2.60;2.40;;;;;;;;;;5042770;28;20497;-77
2021/07/11 03:59:36;;;;;;;4.20;2.78;;;;;;;;;;5038810;28;20037;-79
2021/07/11 04:02:04;;;;;;;3.20;2.40;;;;;;;;;;5045808;28;20116;-79
2021/07/11 04:04:31;;;;;;;3.40;2.58;;;;;;;;;;5041308;28;20033;-79
2021/07/11 04:06:57;;;;;;;4.03;2.70;;;;;;;;;;5045398;28;20029;-79
2021/07/11 04:09:24;;;;;;;4.38;2.65;;;;;;;;;;5046833;28;20027;-79
2021/07/11 04:11:50;;;;;;;4.10;2.72;;;;;;;;;;5041001;28;20025;-79
2021/07/11 04:14:17;;;;;;;4.13;2.60;;;;;;;;;;5045785;28;20488;-80
2021/07/11 04:16:46;;;;;;;2.97;2.67;;;;;;;;;;5042766;28;20045;-79
2021/07/11 04:19:13;;;;;;;4.32;3.30;;;;;;;;;;5038185;28;20020;-79
2021/07/11 04:21:40;;;;;;;4.75;3.17;;;;;;;;;;5045635;28;20436;-79
2021/07/11 04:24:06;;;;;;;2.97;2.67;;;;;;;;;;5043766;28;20033;-79
2021/07/11 04:26:35;;;;;;;4.38;3.08;;;;;;;;;;5047463;28;20136;-79
2021/07/11 04:29:02;;;;;;;3.15;2.67;;;;;;;;;;5046491;28;20024;-79
2021/07/11 04:31:27;;;;;;;5.72;2.80;;;;;;;;;;5041074;28;20460;-79
2021/07/11 04:33:53;;;;;;;4.32;2.85;;;;;;;;;;5046610;28;20059;-79
2021/07/11 04:36:18;;;;;;;4.68;2.78;;;;;;;;;;5041469;28;20057;-79
2021/07/11 04:38:44;;;;;;;3.40;2.72;;;;;;;;;;5045881;28;20028;-79
2021/07/11 04:41:11;;;;;;;5.85;2.97;;;;;;;;;;5049241;28;20473;-79
2021/07/11 04:43:38;;;;;;;5.70;2.88;;;;;;;;;;5046367;28;20123;-79
2021/07/11 04:46:04;;;;;;;5.30;2.70;;;;;;;;;;5048558;28;20028;-79
2021/07/11 04:48:29;;;;;;;5.03;2.72;;;;;;;;;;5044517;28;20029;-79
2021/07/11 04:50:55;;;;;;;3.35;2.85;;;;;;;;;;5044801;28;20028;-79
2021/07/11 04:53:20;;;;;;;4.22;2.83;;;;;;;;;;5045063;28;20025;-79
2021/07/11 04:55:47;;;;;;;2.92;2.63;;;;;;;;;;5041048;28;20077;-79
2021/07/11 04:58:13;;;;;;;3.88;2.85;;;;;;;;;;5037462;28;20342;-79
2021/07/11 05:00:40;;;;;;;4.15;2.85;;;;;;;;;;5044123;28;20370;-79
2021/07/11 05:03:05;;;;;;;3.55;2.75;;;;;;;;;;5040741;28;20049;-79
2021/07/11 05:05:34;;;;;;;3.90;2.90;;;;;;;;;;5049014;28;20488;-79
2021/07/11 05:08:01;;;;;;;3.70;3.25;;;;;;;;;;5043987;28;20021;-79
2021/07/11 05:10:26;;;;;;;4.03;3.10;;;;;;;;;;5048759;28;20400;-80
2021/07/11 05:12:51;;;;;;;4.18;2.80;;;;;;;;;;5045433;28;20029;-80
2021/07/11 05:15:20;;;;;;;4.13;2.90;;;;;;;;;;5046746;28;20024;-80
2021/07/11 05:17:45;;;;;;;5.68;3.15;;;;;;;;;;5047246;28;20025;-79
2021/07/11 05:20:11;;;;;;;4.80;3.33;;;;;;;;;;5049659;28;20028;-80
2021/07/11 05:22:37;;;;;;;4.78;2.97;;;;;;;;;;5047603;28;20025;-80
2021/07/11 05:25:03;;;;;;;5.00;2.60;;;;;;;;;;5049101;28;20469;-80
2021/07/11 05:27:29;;;;;;;4.10;3.33;;;;;;;;;;5045084;28;20037;-80
2021/07/11 05:29:54;;;;;;;3.33;3.03;;;;;;;;;;5062227;28;20052;-79
2021/07/11 05:32:19;;;;;;;3.10;2.80;;;;;;;;;;5045193;28;20112;-80
2021/07/11 05:34:45;;;;;;;5.35;3.20;;;;;;;;;;5044894;28;20017;-80
2021/07/11 05:37:10;;;;;;;4.50;3.60;;;;;;;;;;5044987;28;20372;-80
2021/07/11 05:39:36;;;;;;;4.45;2.58;;;;;;;;;;5048611;28;20485;-80
2021/07/11 05:42:01;;;;;;;2.58;2.38;;;;;;;;;;5048021;28;20029;-80
2021/07/11 05:44:27;;;;;;;3.25;2.53;;;;;;;;;;5048531;28;20017;-80
2021/07/11 05:46:52;;;;;;;3.08;2.78;;;;;;;;;;5046804;28;20037;-79
2021/07/11 05:49:18;;;;;;;3.67;2.55;;;;;;;;;;5045628;28;20031;-80
2021/07/11 05:51:43;;;;;;;3.13;2.70;;;;;;;;;;5048967;28;20223;-80
2021/07/11 05:54:08;;;;;;;3.20;2.60;;;;;;;;;;5046106;28;20069;-79
2021/07/11 05:56:34;;;;;;;3.88;2.65;;;;;;;;;;5045651;28;20112;-79
2021/07/11 05:59:00;;;;;;;4.20;2.88;;;;;;;;;;5045783;28;20028;-79
2021/07/11 06:01:27;;;;;;;4.05;2.85;;;;;;;;;;5049833;28;20027;-80
2021/07/11 06:03:53;;;;;;;6.13;3.60;;;;;;;;;;5044994;28;20056;-79
2021/07/11 06:06:18;;;;;;;3.28;2.97;;;;;;;;;;5043858;28;20056;-80
2021/07/11 06:08:43;;;;;;;3.30;2.60;;;;;;;;;;5046246;28;20055;-80
2021/07/11 06:11:09;;;;;;;2.80;2.50;;;;;;;;;;5048520;28;20017;-80
2021/07/11 06:13:34;;;;;;;3.63;2.80;;;;;;;;;;5044498;28;20133;-80
2021/07/11 06:16:00;;;;;;;4.57;2.80;;;;;;;;;;5041748;28;20032;-80
2021/07/11 06:18:25;;;;;;;4.50;2.67;;;;;;;;;;5045010;28;20031;-80
2021/07/11 06:20:50;;;;;;;3.58;2.50;;;;;;;;;;5045861;28;20392;-80
2021/07/11 06:23:16;;;;;;;4.53;2.67;;;;;;;;;;5047010;28;20090;-80
2021/07/11 06:25:43;;;;;;;4.97;2.72;;;;;;;;;;5061487;28;20033;-80
2021/07/11 06:28:09;;;;;;;2.90;2.60;;;;;;;;;;5044892;28;20392;-80
2021/07/11 06:30:35;;;;;;;2.90;2.63;;;;;;;;;;5046826;28;20108;-80
2021/07/11 06:33:00;;;;;;;3.45;2.60;;;;;;;;;;5043804;28;20044;-80
2021/07/11 06:35:26;;;;;;;3.60;2.70;;;;;;;;;;5048404;28;20112;-80
2021/07/11 06:37:52;;;;;;;4.57;2.97;;;;;;;;;;5046367;28;20055;-79
2021/07/11 06:40:20;;;;;;;4.00;2.70;;;;;;;;;;5044288;28;20029;-79
2021/07/11 06:42:45;;;;;;;3.17;2.80;;;;;;;;;;5043353;28;20033;-80
2021/07/11 06:45:12;;;;;;;3.45;2.75;;;;;;;;;;5048215;28;20066;-79
2021/07/11 06:47:38;;;;;;;3.55;3.08;;;;;;;;;;5046896;28;20033;-78
2021/07/11 06:50:09;;;;;;;5.75;3.72;;;;;;;;;;5041123;28;20021;-79
2021/07/11 06:52:35;;;;;;;4.18;2.97;;;;;;;;;;5043655;28;20380;-79
2021/07/11 06:55:03;;;;;;;3.97;2.95;;;;;;;;;;5045708;28;20025;-79
2021/07/11 06:57:28;;;;;;;4.18;2.72;;;;;;;;;;5047086;28;20033;-79
2021/07/11 06:59:54;;;;;;;4.22;2.90;;;;;;;;;;5046024;28;20044;-79
2021/07/11 07:02:19;;;;;;;3.22;2.88;;;;;;;;;;5046605;28;20031;-79
2021/07/11 07:04:45;;;;;;;2.70;2.40;;;;;;;;;;5045611;28;20044;-79
2021/07/11 07:07:10;;;;;;;4.65;2.58;;;;;;;;;;5047591;28;20029;-80
2021/07/11 07:09:35;;;;;;;4.35;2.45;;;;;;;;;;5044686;28;20017;-80
2021/07/11 07:12:01;;;;;;;3.97;2.80;;;;;;;;;;5047300;28;20370;-79
2021/07/11 07:14:26;;;;;;;3.80;2.40;;;;;;;;;;5046299;28;20373;-79
2021/07/11 07:16:52;;;;;;;3.92;2.65;;;;;;;;;;5044312;28;20025;-80
2021/07/11 07:19:17;;;;;;;4.05;2.47;;;;;;;;;;5043188;28;20059;-81
2021/07/11 07:21:43;;;;;;;4.00;2.90;;;;;;;;;;5047726;28;20052;-80
2021/07/11 07:24:08;;;;;;;5.13;2.90;;;;;;;;;;5046250;28;20066;-78
2021/07/11 07:26:34;;;;;;;6.15;2.75;;;;;;;;;;5045951;28;20032;-79
2021/07/11 07:28:59;;;;;;;3.03;2.60;;;;;;;;;;5045103;28;20485;-79
2021/07/11 07:31:25;;;;;;;6.45;2.92;;;;;;;;;;5044058;28;20025;-78
2021/07/11 07:33:50;;;;;;;3.95;2.35;;;;;;;;;;5049037;28;20035;-79
2021/07/11 07:36:16;;;;;;;3.10;2.40;;;;;;;;;;5044122;28;20020;-80
2021/07/11 07:38:41;;;;;;;3.90;2.55;;;;;;;;;;5041810;28;20025;-80
2021/07/11 07:41:06;;;;;;;4.25;3.45;;;;;;;;;;5042726;28;20027;-78
2021/07/11 07:43:32;;;;;;;5.65;3.00;;;;;;;;;;5045248;28;20032;-77
2021/07/11 07:45:58;;;;;;;5.38;2.70;;;;;;;;;;5046405;28;20769;-78
2021/07/11 07:48:23;;;;;;;6.22;2.58;;;;;;;;;;5041558;28;20041;-79
2021/07/11 07:50:50;;;;;;;3.58;2.63;;;;;;;;;;5040093;28;20029;-79
2021/07/11 07:53:15;;;;;;;2.80;2.50;;;;;;;;;;5046638;28;20131;-80
2021/07/11 07:55:41;;;;;;;5.13;2.67;;;;;;;;;;5039529;28;20487;-79
2021/07/11 07:58:06;;;;;;;3.08;2.30;;;;;;;;;;5044908;28;20036;-80
2021/07/11 08:00:32;;;;;;;3.92;2.60;;;;;;;;;;5042210;28;20029;-80
2021/07/11 08:02:59;;;;;;;6.63;2.92;;;;;;;;;;5045724;28;20217;-79
2021/07/11 08:05:26;;;;;;;2.90;2.42;;;;;;;;;;5047984;28;20020;-79
2021/07/11 08:07:51;;;;;;;4.22;2.70;;;;;;;;;;5050684;28;20024;-79
2021/07/11 08:10:17;;;;;;;6.85;3.28;;;;;;;;;;5047737;28;20027;-79
2021/07/11 08:12:44;;;;;;;5.00;2.80;;;;;;;;;;5048404;28;20117;-80
2021/07/11 08:15:15;;;;;;;4.63;3.10;;;;;;;;;;5045626;28;20036;-80
2021/07/11 08:17:42;;;;;;;4.13;3.05;;;;;;;;;;5062676;28;20029;-80
2021/07/11 08:20:08;;;;;;;2.90;2.45;;;;;;;;;;5045018;28;20377;-80
2021/07/11 08:22:33;;;;;;;4.35;2.95;;;;;;;;;;5048141;28;20031;-80
2021/07/11 08:24:58;;;;;;;4.32;2.70;;;;;;;;;;5041938;28;20028;-80
2021/07/11 08:27:26;;;;;;;3.70;3.30;;;;;;;;;;5050223;28;20446;-79
2021/07/11 08:29:51;;;;;;;4.50;3.53;;;;;;;;;;5047266;28;20033;-79
2021/07/11 08:32:18;;;;;;;4.90;3.63;;;;;;;;;;5047965;28;20094;-79
2021/07/11 08:34:44;;;;;;;3.58;3.25;;;;;;;;;;5050147;28;20035;-80
2021/07/11 08:37:09;;;;;;;3.33;2.72;;;;;;;;;;5046416;28;20016;-79
2021/07/11 08:39:35;;;;;;;3.08;2.33;;;;;;;;;;5047473;28;20027;-79
2021/07/11 08:42:00;;;;;;;3.75;2.70;;;;;;;;;;5045602;28;20049;-80
2021/07/11 08:44:26;;;;;;;4.30;2.90;;;;;;;;;;5050928;28;20028;-79
2021/07/11 08:46:52;;;;;;;3.30;2.70;;;;;;;;;;5046944;28;20064;-79
2021/07/11 08:49:18;;;;;;;3.40;2.88;;;;;;;;;;5045533;28;20111;-79
2021/07/11 08:51:45;;;;;;;7.20;3.25;;;;;;;;;;5048715;28;20113;-79
2021/07/11 08:54:12;;;;;;;4.53;3.33;;;;;;;;;;5048510;28;20082;-79
2021/07/11 08:56:38;;;;;;;4.13;3.50;;;;;;;;;;5041971;28;20059;-80
2021/07/11 08:59:03;;;;;;;3.53;3.22;;;;;;;;;;5044717;28;20085;-81
2021/07/11 09:01:29;;;;;;;3.30;3.00;;;;;;;;;;5048040;28;20527;-80
2021/07/11 09:04:06;;;;;;;4.55;2.75;;;;;;;;;;5048585;28;20071;-81
2021/07/11 09:06:48;;;;;;;3.83;3.05;;;;;;;;;;5046526;28;20079;-81
2021/07/11 09:09:33;;;;;;;4.35;3.13;;;;;;;;;;5049186;28;20036;-80
2021/07/11 09:12:01;;;;;;;4.43;3.22;;;;;;;;;;5046735;28;20041;-80
2021/07/11 09:14:28;;;;;;;3.75;3.40;;;;;;;;;;5059058;28;20136;-81
2021/07/11 09:16:56;;;;;;;3.75;2.97;;;;;;;;;;5050359;28;20033;-80
2021/07/11 09:19:26;;;;;;;4.57;3.10;;;;;;;;;;5048543;28;20503;-80
2021/07/11 09:21:54;;;;;;;4.13;3.15;;;;;;;;;;5046259;28;20040;-81
2021/07/11 09:24:20;;;;;;;5.07;2.97;;;;;;;;;;5046364;28;20025;-80
2021/07/11 09:26:46;;;;;;;3.30;2.85;;;;;;;;;;5047794;28;20030;-80
2021/07/11 09:29:22;;;;;;;3.83;3.22;;;;;;;;;;5049882;28;20020;-80
2021/07/11 09:31:48;;;;;;;3.75;3.38;;;;;;;;;;5058816;28;20048;-80
2021/07/11 09:34:20;;;;;;;4.55;2.75;;;;;;;;;;5043329;28;20052;-80
2021/07/11 09:36:49;;;;;;;4.97;3.38;;;;;;;;;;5049639;28;20021;-80
2021/07/11 09:39:14;;;;;;;3.47;3.17;;;;;;;;;;5047286;28;20079;-80
2021/07/11 09:41:40;;;;;;;3.70;3.40;;;;;;;;;;5043039;28;20041;-80
2021/07/11 09:44:06;;;;;;;3.80;3.45;;;;;;;;;;5051250;28;20070;-80
2021/07/11 09:46:33;;;;;;;3.92;3.40;;;;;;;;;;5046995;28;20071;-80
2021/07/11 09:48:59;;;;;;;5.68;3.22;;;;;;;;;;5049834;28;20087;-80
2021/07/11 09:51:28;;;;;;;3.60;3.30;;;;;;;;;;5046922;28;20090;-79
2021/07/11 09:53:55;;;;;;;3.78;3.05;;;;;;;;;;5043240;28;20033;-80
2021/07/11 09:56:46;;;;;;;3.67;3.10;;;;;;;;;;5040288;28;20046;-81
2021/07/11 09:59:18;;;;;;;5.15;2.85;;;;;;;;;;5045038;28;20051;-81
2021/07/11 10:01:44;;;;;;;3.67;2.72;;;;;;;;;;5046355;28;20021;-80
2021/07/11 10:04:11;;;;;;;3.67;2.75;;;;;;;;;;5046616;28;20446;-81
2021/07/11 10:06:39;;;;;;;3.05;2.67;;;;;;;;;;5042829;28;20095;-80
2021/07/11 10:09:06;;;;;;;4.30;2.67;;;;;;;;;;5047305;28;20098;-81
2021/07/11 10:11:32;;;;;;;3.67;2.72;;;;;;;;;;5049660;28;20028;-81
2021/07/11 10:13:57;;;;;;;3.88;2.75;;;;;;;;;;5042307;28;20287;-81
2021/07/11 10:16:25;;;;;;;3.67;2.80;;;;;;;;;;5046543;28;20457;-80
2021/07/11 10:18:57;;;;;;;3.10;2.80;;;;;;;;;;5045113;28;20037;-81
2021/07/11 10:21:31;;;;;;;5.18;2.80;;;;;;;;;;5043753;28;20066;-81
2021/07/11 10:23:57;;;;;;;4.35;2.50;;;;;;;;;;5046507;28;20122;-80
2021/07/11 10:26:34;;;;;;;4.00;3.00;;;;;;;;;;5042620;28;20026;-81
2021/07/11 10:29:13;;;;;;;6.85;2.92;;;;;;;;;;5049458;28;20140;-81
2021/07/11 10:31:50;;;;;;;3.00;2.70;;;;;;;;;;5045009;28;20120;-81
2021/07/11 10:34:33;;;;;;;4.65;2.70;;;;;;;;;;5045962;28;20017;-80
2021/07/11 10:37:13;;;;;;;3.28;2.85;;;;;;;;;;5059958;28;20033;-80
2021/07/11 10:39:38;;;;;;;2.58;2.38;;;;;;;;;;5042465;28;20033;-80
2021/07/11 10:42:04;;;;;;;4.95;2.85;;;;;;;;;;5046996;28;20397;-80
2021/07/11 10:44:30;;;;;;;2.47;2.20;;;;;;;;;;5040427;28;20064;-80
2021/07/11 10:47:06;;;;;;;2.45;2.25;;;;;;;;;;5039409;28;20639;-80
2021/07/11 10:49:34;;;;;;;2.70;2.20;;;;;;;;;;5044282;28;20052;-80
2021/07/11 10:52:03;;;;;;;5.28;2.42;;;;;;;;;;5041502;28;20029;-80
2021/07/11 10:54:48;;;;;;;3.10;2.40;;;;;;;;;;5045696;28;20103;-81
2021/07/11 10:57:29;;;;;;;3.05;2.30;;;;;;;;;;5039198;28;20022;-80
2021/07/11 10:59:54;;;;;;;2.67;2.33;;;;;;;;;;5044157;28;20036;-80
2021/07/11 11:02:23;;;;;;;2.78;2.58;;;;;;;;;;5045559;28;20034;-80
2021/07/11 11:05:11;;;;;;;4.30;2.60;;;;;;;;;;5043540;28;20024;-80
2021/07/11 11:07:45;;;;;;;3.58;2.22;;;;;;;;;;5044226;28;20326;-80
2021/07/11 11:10:18;;;;;;;2.75;2.40;;;;;;;;;;5047833;28;20040;-80
2021/07/11 11:12:44;;;;;;;3.35;3.00;;;;;;;;;;5046196;28;20051;-81
2021/07/11 11:15:15;;;;;;;2.97;2.40;;;;;;;;;;5046823;28;20115;-80
2021/07/11 11:17:41;;;;;;;3.58;3.25;;;;;;;;;;5044897;28;20040;-80
2021/07/11 11:20:16;;;;;;;4.78;3.17;;;;;;;;;;5048118;28;20021;-80
2021/07/11 11:22:53;;;;;;;4.05;2.92;;;;;;;;;;5043952;28;20415;-80
2021/07/11 11:25:20;;;;;;;3.30;3.00;;;;;;;;;;5044718;28;20344;-81
2021/07/11 11:27:45;;;;;;;2.80;2.60;;;;;;;;;;5044944;28;20033;-80
2021/07/11 11:30:14;;;;;;;3.40;2.80;;;;;;;;;;5046077;28;20562;-80
2021/07/11 11:32:41;;;;;;;4.07;3.17;;;;;;;;;;5045039;28;20495;-80
2021/07/11 11:35:07;;;;;;;6.45;3.17;;;;;;;;;;5046635;28;20274;-80
2021/07/11 11:37:33;;;;;;;2.83;2.53;;;;;;;;;;5040563;28;20051;-80
2021/07/11 11:40:06;;;;;;;3.88;2.72;;;;;;;;;;5043159;28;20124;-80
2021/07/11 11:42:32;;;;;;;3.70;2.80;;;;;;;;;;5043368;28;20115;-80
2021/07/11 11:45:08;;;;;;;3.33;2.63;;;;;;;;;;5047479;28;20117;-80
2021/07/11 11:47:34;;;;;;;3.78;3.00;;;;;;;;;;5040770;28;20025;-80
2021/07/11 11:50:18;;;;;;;2.70;2.50;;;;;;;;;;5046826;28;20495;-80
2021/07/11 11:52:45;;;;;;;4.20;3.03;;;;;;;;;;5038821;28;20036;-80
2021/07/11 11:55:12;;;;;;;2.88;2.58;;;;;;;;;;5043629;28;20079;-79
2021/07/11 11:57:40;;;;;;;3.03;2.72;;;;;;;;;;5044496;28;20086;-79
2021/07/11 12:00:20;;;;;;;3.45;2.70;;;;;;;;;;5045643;28;20108;-80
2021/07/11 12:02:45;;;;;;;2.40;2.20;;;;;;;;;;5042361;28;20029;-81
2021/07/11 12:05:13;;;;;;;3.13;2.58;;;;;;;;;;5043789;28;20384;-81
2021/07/11 12:07:40;;;;;;;2.45;2.25;;;;;;;;;;5042261;28;20060;-80
2021/07/11 12:10:06;;;;;;;3.20;2.70;;;;;;;;;;5045986;28;20029;-81
2021/07/11 12:12:33;;;;;;;2.65;2.45;;;;;;;;;;5044187;28;20021;-81
2021/07/11 12:15:00;;;;;;;3.90;2.30;;;;;;;;;;5041718;28;20033;-81
2021/07/11 12:17:31;;;;;;;2.60;2.13;;;;;;;;;;5041577;28;20659;-81
2021/07/11 12:19:57;;;;;;;3.88;2.45;;;;;;;;;;5044035;28;20025;-80
2021/07/11 12:22:27;;;;;;;4.82;2.58;;;;;;;;;;5042055;28;20070;-81
2021/07/11 12:25:23;;;;;;;3.15;2.05;;;;;;;;;;5058020;28;20029;-81
2021/07/11 12:27:58;;;;;;;2.60;2.30;;;;;;;;;;5047296;28;20488;-81
2021/07/11 12:30:24;;;;;;;2.33;2.00;;;;;;;;;;5044668;28;20040;-81
2021/07/11 12:32:53;;;;;;;3.25;2.00;;;;;;;;;;5043565;28;20519;-81
2021/07/11 12:35:22;;;;;;;2.65;2.10;;;;;;;;;;5043723;28;20057;-81
2021/07/11 12:37:55;;;;;;;2.50;2.30;;;;;;;;;;5040578;28;20025;-82
2021/07/11 12:40:26;;;;;;;2.80;2.17;;;;;;;;;;5044106;28;20473;-81
2021/07/11 12:43:19;;;;;;;3.28;2.35;;;;;;;;;;5041718;28;20373;-81
2021/07/11 12:45:56;;;;;;;2.20;2.00;;;;;;;;;;5044008;28;20032;-82
2021/07/11 12:48:21;;;;;;;4.57;2.25;;;;;;;;;;5055160;28;20106;-81
2021/07/11 12:50:47;;;;;;;2.45;2.22;;;;;;;;;;5043352;28;20473;-81
2021/07/11 12:53:12;;;;;;;2.50;2.30;;;;;;;;;;5051779;28;20453;-81
2021/07/11 12:55:39;;;;;;;2.60;2.22;;;;;;;;;;5049574;28;20230;-81
2021/07/11 12:58:14;;;;;;;2.47;1.90;;;;;;;;;;5047085;28;20264;-82
2021/07/11 13:00:40;;;;;;;2.60;2.13;;;;;;;;;;5049887;28;20033;-81
2021/07/11 13:03:06;;;;;;;4.25;1.95;;;;;;;;;;5041496;28;20021;-82
2021/07/11 13:05:42;;;;;;;1.75;1.60;;;;;;;;;;5040178;28;20031;-82
2021/07/11 13:08:13;;;;;;;2.28;1.77;;;;;;;;;;5047260;28;20044;-81
2021/07/11 13:10:40;;;;;;;2.00;1.80;;;;;;;;;;5040388;28;20510;-81
2021/07/11 13:13:10;;;;;;;1.73;1.63;;;;;;;;;;5048666;28;20115;-81
2021/07/11 13:15:38;;;;;;;2.35;1.90;;;;;;;;;;5044565;28;20029;-82
2021/07/11 13:18:06;;;;;;;2.17;1.83;;;;;;;;;;5043261;28;20108;-82
2021/07/11 13:20:32;;;;;;;2.83;1.80;;;;;;;;;;5048622;28;20028;-82
2021/07/11 13:22:57;;;;;;;2.05;1.85;;;;;;;;;;5047528;28;20021;-81
2021/07/11 13:25:23;;;;;;;2.10;1.90;;;;;;;;;;5049672;28;20428;-81
2021/07/11 13:27:48;;;;;;;2.20;1.95;;;;;;;;;;5046826;28;20390;-81
2021/07/11 13:30:15;;;;;;;2.08;1.88;;;;;;;;;;5046496;28;20021;-80
2021/07/11 13:32:41;;;;;;;2.80;1.63;;;;;;;;;;5044826;28;20029;-80
2021/07/11 13:35:07;;;;;;;3.20;2.10;;;;;;;;;;5043382;28;20032;-80
2021/07/11 13:37:34;;;;;;;2.42;2.00;;;;;;;;;;5046923;28;20098;-80
2021/07/11 13:40:00;;;;;;;5.40;1.85;;;;;;;;;;5048672;28;20715;-81
2021/07/11 13:42:26;;;;;;;2.97;2.20;;;;;;;;;;5046598;28;20654;-81
2021/07/11 13:44:51;;;;;;;2.55;1.70;;;;;;;;;;5045032;28;20092;-81
2021/07/11 13:47:17;;;;;;;3.50;2.10;;;;;;;;;;5045795;28;20017;-81
2021/07/11 13:49:42;;;;;;;2.25;1.70;;;;;;;;;;5048461;28;20481;-81
2021/07/11 13:52:08;;;;;;;2.28;2.08;;;;;;;;;;5042856;28;20159;-82
2021/07/11 13:54:33;;;;;;;2.58;1.85;;;;;;;;;;5045200;28;20029;-80
2021/07/11 13:56:59;;;;;;;2.55;1.83;;;;;;;;;;5049670;28;20052;-79
2021/07/11 13:59:24;;;;;;;2.00;1.80;;;;;;;;;;5047091;28;20025;-80
2021/07/11 14:01:49;;;;;;;2.58;1.70;;;;;;;;;;5049144;28;20035;-80
2021/07/11 14:04:15;;;;;;;2.92;1.75;;;;;;;;;;5045156;28;20256;-81
2021/07/11 14:06:40;;;;;;;2.20;1.92;;;;;;;;;;5044996;28;20028;-81
2021/07/11 14:09:06;;;;;;;2.58;2.30;;;;;;;;;;5046220;28;20429;-81
2021/07/11 14:11:31;;;;;;;4.18;2.00;;;;;;;;;;5046549;28;20037;-81
2021/07/11 14:13:57;;;;;;;2.50;2.00;;;;;;;;;;5043652;28;20037;-81
2021/07/11 14:16:22;;;;;;;2.80;1.75;;;;;;;;;;5048401;28;20031;-81
2021/07/11 14:18:48;;;;;;;2.53;1.92;;;;;;;;;;5045714;28;20033;-81
2021/07/11 14:21:15;;;;;;;4.82;2.00;;;;;;;;;;5040674;28;20443;-81
2021/07/11 14:23:40;;;;;;;2.30;2.08;;;;;;;;;;5047763;28;20056;-79
2021/07/11 14:26:05;;;;;;;2.63;1.70;;;;;;;;;;5047545;28;20067;-79
2021/07/11 14:28:31;;;;;;;2.40;2.17;;;;;;;;;;5045832;28;20021;-79
2021/07/11 14:30:58;;;;;;;2.38;2.17;;;;;;;;;;5046916;28;20025;-81
2021/07/11 14:33:25;;;;;;;4.13;2.17;;;;;;;;;;5046178;28;20021;-80
2021/07/11 14:35:51;;;;;;;3.08;1.80;;;;;;;;;;5043698;28;20031;-80
2021/07/11 14:38:16;;;;;;;3.05;1.80;;;;;;;;;;5046540;28;20048;-81
2021/07/11 14:40:42;;;;;;;2.90;2.30;;;;;;;;;;5046388;28;20033;-80
2021/07/11 14:43:09;;;;;;;3.20;2.00;;;;;;;;;;5042975;28;20127;-79
2021/07/11 14:45:36;;;;;;;2.70;2.17;;;;;;;;;;5040997;28;20033;-81